createdAt,value
2023-01-15T00:01:02.292Z,-0.05
2023-01-15T00:03:30.086Z,0.07
2023-01-15T00:05:57.040Z,0.19
2023-01-15T00:08:24.400Z,0.07
2023-01-15T00:10:50.873Z,0.02
2023-01-15T00:13:17.331Z,-0.01
2023-01-15T00:15:43.947Z,0.06
2023-01-15T00:18:10.505Z,0.19
2023-01-15T00:20:37.031Z,0.11
2023-01-15T00:23:04.182Z,0.06
2023-01-15T00:25:50.651Z,0.05
2023-01-15T00:28:17.111Z,0.03
2023-01-15T00:30:43.644Z,0.09
2023-01-15T00:33:10.329Z,0.21
2023-01-15T00:35:36.856Z,0.28
2023-01-15T00:38:03.340Z,0.19
2023-01-15T00:40:29.779Z,0.13
2023-01-15T00:42:56.351Z,0.11
2023-01-15T00:45:23.329Z,0.16
2023-01-15T00:47:50.817Z,0.25
2023-01-15T00:50:17.422Z,0.23
2023-01-15T00:52:43.994Z,0.22
2023-01-15T00:55:10.660Z,0.19
2023-01-15T00:57:37.201Z,0.19
2023-01-15T01:00:04.208Z,0.30
2023-01-15T01:02:30.739Z,0.33
2023-01-15T01:04:57.309Z,0.34
2023-01-15T01:07:23.805Z,0.31
2023-01-15T01:09:51.203Z,0.26
2023-01-15T01:12:17.683Z,0.28
2023-01-15T01:14:44.681Z,0.25
2023-01-15T01:17:12.538Z,0.25
2023-01-15T01:19:39.090Z,0.32
2023-01-15T01:22:06.209Z,0.38
2023-01-15T01:24:33.434Z,0.36
2023-01-15T01:26:59.964Z,0.32
2023-01-15T01:29:26.728Z,0.32
2023-01-15T01:31:53.337Z,0.33
2023-01-15T01:34:19.931Z,0.38
2023-01-15T01:36:46.519Z,0.39
2023-01-15T01:39:14.794Z,0.39
2023-01-15T01:41:41.306Z,0.41
2023-01-15T01:44:27.685Z,0.45
2023-01-15T01:46:54.233Z,0.46
2023-01-15T01:49:20.940Z,0.52
2023-01-15T01:51:50.727Z,0.55
2023-01-15T01:54:18.793Z,0.60
2023-01-15T01:56:45.754Z,0.44
2023-01-15T01:59:13.137Z,0.29
2023-01-15T02:01:39.729Z,0.31
2023-01-15T02:04:07.884Z,0.40
2023-01-15T02:06:34.357Z,0.51
2023-01-15T02:09:01.607Z,0.52
2023-01-15T02:11:29.239Z,0.43
2023-01-15T02:14:17.975Z,0.37
2023-01-15T02:16:52.898Z,0.37
2023-01-15T02:19:37.823Z,0.47
2023-01-15T02:22:11.221Z,0.54
2023-01-15T02:24:55.392Z,0.45
2023-01-15T02:27:23.191Z,0.43
2023-01-15T02:30:01.706Z,0.42
2023-01-15T02:32:39.248Z,0.55
2023-01-15T02:35:08.548Z,0.62
2023-01-15T02:37:37.234Z,0.52
2023-01-15T02:40:05.980Z,0.47
2023-01-15T02:42:34.521Z,0.46
2023-01-15T02:45:02.849Z,0.52
2023-01-15T02:47:33.467Z,0.64
2023-01-15T02:50:04.645Z,0.66
2023-01-15T02:52:41.181Z,0.58
2023-01-15T02:55:22.636Z,0.53
2023-01-15T02:57:51.484Z,0.54
2023-01-15T03:00:19.412Z,0.63
2023-01-15T03:03:09.261Z,0.69
2023-01-15T03:05:39.147Z,0.63
2023-01-15T03:08:07.564Z,0.60
2023-01-15T03:10:37.075Z,0.60
2023-01-15T03:13:05.559Z,0.60
2023-01-15T03:16:11.419Z,0.73
2023-01-15T03:19:02.239Z,0.76
2023-01-15T03:21:33.166Z,0.71
2023-01-15T03:24:04.193Z,0.72
2023-01-15T03:26:30.788Z,0.72
2023-01-15T03:28:57.919Z,0.79
2023-01-15T03:31:24.544Z,0.88
2023-01-15T03:33:51.213Z,0.81
2023-01-15T03:36:18.247Z,0.78
2023-01-15T03:38:49.544Z,0.79
2023-01-15T03:41:18.801Z,0.87
2023-01-15T03:43:54.283Z,0.94
2023-01-15T03:46:22.773Z,0.86
2023-01-15T03:49:14.428Z,0.82
2023-01-15T03:51:56.940Z,0.82
2023-01-15T03:54:46.920Z,0.87
2023-01-15T03:57:15.420Z,0.87
2023-01-15T03:59:50.087Z,0.90
2023-01-15T04:02:18.090Z,0.89
2023-01-15T04:04:45.568Z,0.83
2023-01-15T04:07:12.504Z,0.85
2023-01-15T04:09:39.984Z,0.93
2023-01-15T04:12:06.804Z,0.98
2023-01-15T04:14:34.073Z,0.94
2023-01-15T04:17:00.716Z,0.93
2023-01-15T04:19:27.289Z,0.91
2023-01-15T04:21:53.841Z,0.90
2023-01-15T04:24:21.114Z,0.99
2023-01-15T04:26:47.679Z,0.97
2023-01-15T04:29:14.130Z,0.94
2023-01-15T04:31:40.757Z,0.95
2023-01-15T04:34:07.304Z,0.92
2023-01-15T04:36:36.630Z,0.93
2023-01-15T04:39:04.189Z,0.97
2023-01-15T04:41:49.080Z,1.00
2023-01-15T04:44:15.620Z,0.92
2023-01-15T04:46:46.155Z,0.94
2023-01-15T04:49:14.454Z,0.92
2023-01-15T04:51:41.213Z,0.94
2023-01-15T04:54:09.371Z,0.92
2023-01-15T04:56:43.496Z,0.97
2023-01-15T04:59:10.323Z,1.01
2023-01-15T05:01:37.421Z,1.00
2023-01-15T05:04:04.164Z,1.00
2023-01-15T05:06:35.760Z,0.85
2023-01-15T05:09:04.703Z,0.75
2023-01-15T05:11:33.212Z,0.83
2023-01-15T05:14:01.651Z,0.94
2023-01-15T05:16:28.727Z,0.85
2023-01-15T05:18:59.435Z,0.77
2023-01-15T05:21:30.448Z,0.89
2023-01-15T05:24:00.704Z,1.00
2023-01-15T05:26:27.957Z,1.05
2023-01-15T05:28:55.025Z,0.93
2023-01-15T05:31:22.157Z,0.86
2023-01-15T05:33:49.372Z,0.82
2023-01-15T05:36:17.350Z,0.80
2023-01-15T05:38:43.968Z,0.77
2023-01-15T05:41:30.345Z,0.76
2023-01-15T05:43:57.201Z,0.76
2023-01-15T05:46:23.848Z,0.74
2023-01-15T05:48:50.754Z,0.73
2023-01-15T05:51:17.320Z,0.72
2023-01-15T05:53:43.846Z,0.72
2023-01-15T05:56:12.287Z,0.70
2023-01-15T05:58:38.807Z,0.68
2023-01-15T06:01:09.378Z,0.70
2023-01-15T06:03:35.862Z,0.68
2023-01-15T06:06:02.748Z,0.70
2023-01-15T06:08:29.426Z,0.70
2023-01-15T06:10:56.100Z,0.68
2023-01-15T06:13:22.572Z,0.69
2023-01-15T06:15:49.162Z,0.70
2023-01-15T06:18:15.828Z,0.70
2023-01-15T06:20:43.192Z,0.70
2023-01-15T06:23:10.653Z,0.70
2023-01-15T06:25:41.071Z,0.68
2023-01-15T06:28:08.013Z,0.69
2023-01-15T06:30:35.749Z,0.70
2023-01-15T06:33:02.884Z,0.76
2023-01-15T06:35:29.387Z,0.84
2023-01-15T06:37:55.901Z,0.77
2023-01-15T06:40:23.646Z,0.74
2023-01-15T06:43:09.378Z,0.72
2023-01-15T06:45:58.756Z,0.73
2023-01-15T06:48:26.611Z,0.70
2023-01-15T06:50:53.779Z,0.71
2023-01-15T06:53:22.550Z,0.80
2023-01-15T06:55:49.200Z,0.87
2023-01-15T06:58:17.800Z,0.81
2023-01-15T07:00:45.470Z,0.80
2023-01-15T07:03:14.417Z,0.77
2023-01-15T07:05:41.207Z,0.81
2023-01-15T07:08:07.708Z,0.82
2023-01-15T07:10:35.321Z,0.90
2023-01-15T07:13:01.860Z,0.96
2023-01-15T07:15:28.512Z,0.93
2023-01-15T07:17:55.559Z,0.93
2023-01-15T07:20:22.159Z,0.95
2023-01-15T07:22:49.685Z,0.93
2023-01-15T07:25:17.298Z,0.98
2023-01-15T07:27:45.860Z,1.01
2023-01-15T07:30:12.610Z,1.06
2023-01-15T07:32:39.200Z,1.08
2023-01-15T07:35:05.886Z,1.10
2023-01-15T07:37:32.401Z,1.12
2023-01-15T07:39:58.903Z,1.14
2023-01-15T07:42:43.881Z,1.14
2023-01-15T07:45:29.039Z,1.12
2023-01-15T07:48:14.312Z,1.04
2023-01-15T07:50:40.896Z,0.99
2023-01-15T07:53:07.397Z,1.03
2023-01-15T07:55:35.224Z,1.10
2023-01-15T07:58:02.539Z,0.98
2023-01-15T08:00:29.049Z,0.85
2023-01-15T08:02:55.587Z,0.95
2023-01-15T08:05:22.067Z,1.09
2023-01-15T08:07:49.488Z,1.18
2023-01-15T08:10:16.037Z,1.14
2023-01-15T08:13:00.948Z,1.03
2023-01-15T08:15:30.428Z,0.99
2023-01-15T08:17:57.759Z,0.98
2023-01-15T08:20:25.704Z,0.96
2023-01-15T08:22:55.250Z,0.94
2023-01-15T08:25:23.844Z,1.01
2023-01-15T08:27:52.639Z,1.16
2023-01-15T08:30:21.020Z,1.08
2023-01-15T08:32:47.737Z,1.00
2023-01-15T08:35:14.327Z,0.98
2023-01-15T08:37:41.662Z,0.98
2023-01-15T08:40:08.912Z,0.97
2023-01-15T08:42:35.573Z,0.97
2023-01-15T08:45:02.079Z,1.11
2023-01-15T08:47:28.592Z,1.23
2023-01-15T08:49:55.146Z,1.15
2023-01-15T08:52:23.847Z,1.08
2023-01-15T08:54:50.685Z,1.02
2023-01-15T08:57:18.973Z,0.98
2023-01-15T08:59:47.072Z,0.98
2023-01-15T09:02:14.630Z,0.96
2023-01-15T09:04:41.206Z,0.95
2023-01-15T09:07:07.779Z,0.97
2023-01-15T09:09:34.447Z,1.04
2023-01-15T09:12:02.677Z,1.15
2023-01-15T09:14:56.891Z,1.08
2023-01-15T09:17:15.724Z,1.04
2023-01-15T09:19:42.192Z,1.01
2023-01-15T09:22:09.350Z,1.02
2023-01-15T09:24:36.509Z,1.04
2023-01-15T09:27:03.064Z,1.05
2023-01-15T09:29:29.975Z,1.10
2023-01-15T09:31:56.498Z,1.11
2023-01-15T09:34:23.121Z,1.21
2023-01-15T09:36:51.037Z,1.26
2023-01-15T09:39:17.482Z,1.24
2023-01-15T09:42:05.421Z,1.20
2023-01-15T09:44:37.161Z,1.17
2023-01-15T09:47:09.337Z,1.15
2023-01-15T09:49:55.220Z,1.16
2023-01-15T09:52:24.866Z,1.27
2023-01-15T09:54:58.496Z,1.29
2023-01-15T09:57:27.503Z,1.23
2023-01-15T10:00:01.051Z,1.17
2023-01-15T10:02:34.509Z,1.17
2023-01-15T10:05:06.466Z,1.19
2023-01-15T10:07:39.195Z,1.17
2023-01-15T10:10:10.547Z,1.19
2023-01-15T10:12:43.363Z,1.22
2023-01-15T10:15:32.841Z,1.29
2023-01-15T10:18:00.167Z,1.37
2023-01-15T10:20:51.901Z,1.35
2023-01-15T10:23:37.665Z,1.32
2023-01-15T10:26:19.348Z,1.33
2023-01-15T10:28:52.834Z,1.31
2023-01-15T10:31:21.164Z,1.33
2023-01-15T10:34:08.368Z,1.37
2023-01-15T10:36:39.537Z,1.56
2023-01-15T10:39:05.956Z,1.62
2023-01-15T10:41:35.377Z,1.55
2023-01-15T10:44:10.272Z,1.53
2023-01-15T10:46:38.587Z,1.53
2023-01-15T10:49:13.776Z,1.58
2023-01-15T10:51:48.484Z,1.70
2023-01-15T10:54:20.921Z,1.65
2023-01-15T10:56:52.692Z,1.56
2023-01-15T10:59:24.496Z,1.54
2023-01-15T11:01:52.882Z,1.52
2023-01-15T11:04:19.633Z,1.59
2023-01-15T11:06:46.261Z,1.64
2023-01-15T11:09:18.762Z,1.59
2023-01-15T11:11:59.555Z,1.58
2023-01-15T11:14:57.750Z,1.56
2023-01-15T11:17:43.651Z,1.53
2023-01-15T11:20:13.863Z,1.57
2023-01-15T11:22:44.834Z,1.63
2023-01-15T11:25:14.524Z,1.61
2023-01-15T11:27:41.023Z,1.55
2023-01-15T11:30:08.460Z,1.53
2023-01-15T11:32:36.432Z,1.49
2023-01-15T11:35:14.615Z,1.51
2023-01-15T11:37:41.064Z,1.55
2023-01-15T11:40:17.797Z,1.65
2023-01-15T11:43:06.363Z,1.65
2023-01-15T11:45:51.325Z,1.59
2023-01-15T11:48:41.330Z,1.61
2023-01-15T11:51:08.772Z,1.61
2023-01-15T11:53:39.126Z,1.62
2023-01-15T11:56:09.308Z,1.65
2023-01-15T11:58:43.067Z,1.73
2023-01-15T12:01:12.364Z,1.70
2023-01-15T12:03:40.456Z,1.72
2023-01-15T12:06:09.543Z,1.69
2023-01-15T12:08:44.769Z,1.74
2023-01-15T12:11:26.450Z,1.82
2023-01-15T12:13:53.388Z,1.82
2023-01-15T12:16:26.172Z,1.80
2023-01-15T12:19:11.346Z,1.81
2023-01-15T12:21:56.589Z,1.83
2023-01-15T12:24:34.746Z,1.83
2023-01-15T12:27:18.616Z,1.86
2023-01-15T12:30:03.360Z,1.86
2023-01-15T12:32:35.489Z,1.96
2023-01-15T12:35:01.947Z,1.92
2023-01-15T12:37:32.223Z,1.91
2023-01-15T12:39:58.825Z,1.86
2023-01-15T12:42:46.113Z,1.85
2023-01-15T12:45:18.312Z,1.88
2023-01-15T12:48:03.568Z,1.87
2023-01-15T12:50:39.475Z,1.82
2023-01-15T12:53:13.391Z,1.87
2023-01-15T12:55:42.933Z,1.88
2023-01-15T12:58:29.704Z,1.86
2023-01-15T13:01:02.995Z,1.85
2023-01-15T13:03:45.985Z,1.86
2023-01-15T13:06:14.367Z,1.86
2023-01-15T13:08:43.904Z,1.92
2023-01-15T13:11:12.339Z,1.89
2023-01-15T13:13:40.228Z,1.89
2023-01-15T13:16:12.513Z,1.87
2023-01-15T13:18:44.931Z,1.82
2023-01-15T13:21:16.103Z,1.90
2023-01-15T13:24:03.211Z,1.88
2023-01-15T13:26:49.130Z,1.86
2023-01-15T13:29:34.033Z,1.89
2023-01-15T13:32:00.517Z,1.84
2023-01-15T13:34:31.131Z,1.84
2023-01-15T13:37:05.316Z,1.89
2023-01-15T13:39:37.470Z,1.90
2023-01-15T13:42:22.989Z,1.91
2023-01-15T13:44:52.061Z,1.89
2023-01-15T13:47:27.237Z,1.84
2023-01-15T13:49:56.200Z,1.93
2023-01-15T13:52:31.178Z,1.96
2023-01-15T13:55:02.193Z,1.91
2023-01-15T13:57:36.967Z,1.91
2023-01-15T14:00:07.413Z,1.93
2023-01-15T14:02:37.289Z,1.92
2023-01-15T14:05:22.787Z,1.94
2023-01-15T14:07:49.908Z,1.96
2023-01-15T14:10:22.083Z,1.94
2023-01-15T14:12:51.393Z,1.92
2023-01-15T14:15:17.845Z,1.89
2023-01-15T14:17:44.266Z,1.87
2023-01-15T14:20:16.573Z,1.91
2023-01-15T14:22:59.321Z,1.97
2023-01-15T14:25:47.878Z,1.95
2023-01-15T14:28:14.351Z,1.94
2023-01-15T14:30:58.433Z,1.94
2023-01-15T14:33:34.006Z,1.93
2023-01-15T14:36:09.072Z,1.98
2023-01-15T14:38:35.553Z,1.95
2023-01-15T14:41:03.319Z,1.95
2023-01-15T14:43:31.778Z,1.91
2023-01-15T14:46:10.466Z,1.92
2023-01-15T14:48:38.597Z,1.94
2023-01-15T14:51:24.769Z,1.99
2023-01-15T14:54:11.871Z,1.99
2023-01-15T14:56:42.524Z,1.99
2023-01-15T14:59:15.490Z,1.98
2023-01-15T15:01:44.629Z,1.95
2023-01-15T15:04:23.186Z,1.95
2023-01-15T15:06:57.851Z,1.95
2023-01-15T15:09:44.521Z,1.98
2023-01-15T15:12:20.124Z,2.04
2023-01-15T15:15:09.736Z,2.01
2023-01-15T15:17:36.184Z,2.00
2023-01-15T15:20:18.355Z,1.95
2023-01-15T15:22:48.503Z,1.96
2023-01-15T15:25:19.696Z,1.93
2023-01-15T15:27:46.189Z,2.01
2023-01-15T15:30:14.204Z,2.04
2023-01-15T15:32:41.362Z,2.00
2023-01-15T15:35:26.825Z,1.95
2023-01-15T15:37:53.880Z,1.96
2023-01-15T15:40:21.529Z,2.01
2023-01-15T15:43:09.506Z,2.05
2023-01-15T15:46:05.116Z,2.08
2023-01-15T15:48:42.507Z,2.06
2023-01-15T15:51:27.821Z,2.03
2023-01-15T15:54:11.730Z,2.01
2023-01-15T15:56:42.542Z,2.03
2023-01-15T15:59:16.955Z,2.14
2023-01-15T16:01:44.263Z,2.13
2023-01-15T16:04:16.163Z,2.14
2023-01-15T16:06:42.698Z,2.18
2023-01-15T16:09:09.631Z,2.11
2023-01-15T16:11:36.762Z,2.15
2023-01-15T16:14:08.188Z,2.20
2023-01-15T16:16:34.732Z,2.23
2023-01-15T16:19:02.513Z,2.23
2023-01-15T16:21:30.186Z,2.21
2023-01-15T16:23:57.460Z,2.23
2023-01-15T16:26:28.668Z,2.23
2023-01-15T16:28:57.044Z,2.22
2023-01-15T16:31:23.943Z,2.19
2023-01-15T16:33:57.520Z,2.17
2023-01-15T16:36:24.844Z,2.13
2023-01-15T16:38:51.800Z,2.16
2023-01-15T16:41:25.496Z,2.16
2023-01-15T16:43:57.218Z,2.17
2023-01-15T16:46:25.381Z,2.19
2023-01-15T16:49:12.932Z,2.15
2023-01-15T16:51:42.987Z,2.11
2023-01-15T16:54:28.236Z,2.12
2023-01-15T16:56:55.356Z,2.07
2023-01-15T16:59:27.753Z,2.01
2023-01-15T17:02:04.426Z,2.01
2023-01-15T17:04:37.811Z,2.00
2023-01-15T17:07:18.397Z,2.05
2023-01-15T17:09:49.633Z,2.00
2023-01-15T17:12:28.442Z,2.01
2023-01-15T17:14:54.922Z,1.99
2023-01-15T17:17:21.373Z,1.96
2023-01-15T17:19:48.444Z,1.96
2023-01-15T17:22:16.701Z,1.94
2023-01-15T17:24:48.269Z,1.96
2023-01-15T17:27:16.683Z,1.97
2023-01-15T17:29:44.233Z,1.98
2023-01-15T17:32:30.931Z,2.01
2023-01-15T17:34:57.497Z,1.99
2023-01-15T17:37:24.021Z,2.00
2023-01-15T17:39:50.704Z,2.05
2023-01-15T17:42:18.656Z,1.94
2023-01-15T17:44:45.568Z,1.81
2023-01-15T17:47:12.644Z,1.79
2023-01-15T17:49:39.488Z,1.82
2023-01-15T17:52:06.910Z,1.93
2023-01-15T17:54:51.937Z,1.79
2023-01-15T17:57:36.742Z,1.73
2023-01-15T18:00:32.992Z,1.84
2023-01-15T18:03:20.194Z,1.86
2023-01-15T18:05:48.969Z,1.89
2023-01-15T18:08:18.762Z,1.78
2023-01-15T18:10:45.442Z,1.71
2023-01-15T18:13:12.821Z,1.69
2023-01-15T18:15:39.306Z,1.67
2023-01-15T18:18:05.839Z,1.73
2023-01-15T18:20:33.003Z,1.72
2023-01-15T18:23:00.117Z,1.68
2023-01-15T18:25:26.589Z,1.65
2023-01-15T18:27:53.049Z,1.65
2023-01-15T18:30:19.699Z,1.61
2023-01-15T18:32:46.301Z,1.60
2023-01-15T18:35:13.751Z,1.67
2023-01-15T18:37:40.592Z,1.69
2023-01-15T18:40:07.467Z,1.64
2023-01-15T18:42:52.357Z,1.61
2023-01-15T18:45:37.272Z,1.58
2023-01-15T18:48:03.819Z,1.58
2023-01-15T18:50:30.287Z,1.58
2023-01-15T18:52:56.830Z,1.66
2023-01-15T18:55:27.319Z,1.63
2023-01-15T18:57:54.534Z,1.60
2023-01-15T19:00:22.327Z,1.58
2023-01-15T19:02:49.635Z,1.56
2023-01-15T19:05:17.221Z,1.58
2023-01-15T19:07:44.119Z,1.58
2023-01-15T19:10:11.105Z,1.57
2023-01-15T19:12:38.225Z,1.54
2023-01-15T19:15:23.850Z,1.53
2023-01-15T19:18:08.668Z,1.52
2023-01-15T19:20:37.104Z,1.53
2023-01-15T19:23:06.626Z,1.55
2023-01-15T19:25:37.655Z,1.54
2023-01-15T19:28:04.899Z,1.53
2023-01-15T19:30:34.522Z,1.53
2023-01-15T19:33:01.115Z,1.49
2023-01-15T19:35:27.939Z,1.51
2023-01-15T19:37:55.241Z,1.49
2023-01-15T19:40:22.728Z,1.48
2023-01-15T19:43:08.871Z,1.47
2023-01-15T19:45:56.886Z,1.45
2023-01-15T19:48:42.179Z,1.46
2023-01-15T19:51:08.740Z,1.48
2023-01-15T19:53:40.375Z,1.54
2023-01-15T19:56:07.711Z,1.57
2023-01-15T19:58:34.488Z,1.52
2023-01-15T20:01:01.489Z,1.49
2023-01-15T20:03:28.049Z,1.44
2023-01-15T20:05:55.572Z,1.44
2023-01-15T20:08:24.788Z,1.50
2023-01-15T20:10:51.468Z,1.51
2023-01-15T20:13:40.340Z,1.49
2023-01-15T20:16:09.894Z,1.48
2023-01-15T20:18:36.471Z,1.45
2023-01-15T20:21:03.323Z,1.48
2023-01-15T20:23:30.767Z,1.54
2023-01-15T20:26:01.381Z,1.52
2023-01-15T20:28:27.852Z,1.50
2023-01-15T20:30:58.332Z,1.46
2023-01-15T20:33:25.129Z,1.45
2023-01-15T20:35:54.064Z,1.45
2023-01-15T20:38:22.383Z,1.54
2023-01-15T20:40:49.716Z,1.51
2023-01-15T20:43:34.811Z,1.44
2023-01-15T20:46:11.294Z,1.40
2023-01-15T20:48:56.253Z,1.38
2023-01-15T20:51:22.721Z,1.37
2023-01-15T20:53:51.516Z,1.44
2023-01-15T20:56:18.860Z,1.42
2023-01-15T20:58:46.572Z,1.36
2023-01-15T21:01:13.252Z,1.34
2023-01-15T21:03:39.886Z,1.32
2023-01-15T21:06:07.650Z,1.32
2023-01-15T21:08:34.141Z,1.36
2023-01-15T21:11:00.840Z,1.41
2023-01-15T21:13:27.355Z,1.36
2023-01-15T21:15:55.478Z,1.35
2023-01-15T21:18:21.996Z,1.32
2023-01-15T21:20:48.489Z,1.30
2023-01-15T21:23:15.588Z,1.33
2023-01-15T21:25:42.713Z,1.41
2023-01-15T21:28:09.221Z,1.40
2023-01-15T21:30:35.783Z,1.35
2023-01-15T21:33:02.269Z,1.34
2023-01-15T21:35:31.040Z,1.32
2023-01-15T21:37:57.500Z,1.31
2023-01-15T21:40:23.949Z,1.38
2023-01-15T21:43:09.071Z,1.43
2023-01-15T21:45:36.472Z,1.37
2023-01-15T21:48:03.023Z,1.36
2023-01-15T21:50:31.649Z,1.35
2023-01-15T21:52:59.892Z,1.34
2023-01-15T21:55:26.345Z,1.36
2023-01-15T21:57:55.089Z,1.41
2023-01-15T22:00:21.603Z,1.45
2023-01-15T22:02:49.233Z,1.39
2023-01-15T22:05:16.147Z,1.37
2023-01-15T22:07:42.670Z,1.34
2023-01-15T22:10:09.374Z,1.35
2023-01-15T22:12:39.479Z,1.34
2023-01-15T22:15:06.178Z,1.44
2023-01-15T22:17:32.686Z,1.43
2023-01-15T22:19:59.233Z,1.43
2023-01-15T22:22:30.781Z,1.40
2023-01-15T22:24:58.080Z,1.39
2023-01-15T22:27:24.730Z,1.37
2023-01-15T22:29:51.176Z,1.39
2023-01-15T22:32:17.909Z,1.49
2023-01-15T22:34:44.382Z,1.45
2023-01-15T22:37:12.742Z,1.42
2023-01-15T22:39:39.253Z,1.41
2023-01-15T22:42:24.145Z,1.40
2023-01-15T22:44:51.256Z,1.37
2023-01-15T22:47:18.473Z,1.41
2023-01-15T22:49:45.115Z,1.52
2023-01-15T22:52:11.856Z,1.47
2023-01-15T22:54:38.402Z,1.42
2023-01-15T22:57:05.253Z,1.40
2023-01-15T22:59:31.761Z,1.37
2023-01-15T23:01:58.454Z,1.37
2023-01-15T23:04:25.324Z,1.37
2023-01-15T23:06:52.563Z,1.50
2023-01-15T23:09:20.961Z,1.53
2023-01-15T23:11:47.529Z,1.45
2023-01-15T23:14:15.752Z,1.44
2023-01-15T23:16:42.751Z,1.41
2023-01-15T23:19:09.267Z,1.38
2023-01-15T23:21:35.795Z,1.40
2023-01-15T23:24:03.286Z,1.48
2023-01-15T23:26:31.816Z,1.48
2023-01-15T23:28:58.648Z,1.44
2023-01-15T23:31:25.638Z,1.41
2023-01-15T23:33:52.128Z,1.39
2023-01-15T23:36:18.592Z,1.35
2023-01-15T23:38:46.791Z,1.33
2023-01-15T23:41:14.893Z,1.38
2023-01-15T23:44:00.271Z,1.46
2023-01-15T23:46:32.982Z,1.42
2023-01-15T23:48:59.966Z,1.39
2023-01-15T23:51:26.626Z,1.36
2023-01-15T23:53:53.144Z,1.34
2023-01-15T23:56:19.663Z,1.35
2023-01-15T23:58:46.415Z,1.43
